Time;durP1;ratioP1;P1;durP2;ratioP2;P2;SDS_P1;SDS_P2;PMS_P1;PMS_P2;Temp;Humidity;BMP_temperature;BMP_pressure;BME280_temperature;BME280_humidity;BME280_pressure;Samples;Min_cycle;Max_cycle;Signal;HPM_P1;HPM_P2
2022/11/09 00:00:51;;;;;;;0.82;0.70;;;13.10;99.90;;;;;;5115464;28;20040;-67
2022/11/09 00:03:17;;;;;;;2.00;1.05;;;13.20;99.90;;;;;;5115713;28;20055;-67
2022/11/09 00:05:43;;;;;;;2.45;0.82;;;13.20;99.70;;;;;;5115298;28;20039;-68
2022/11/09 00:08:10;;;;;;;1.42;0.90;;;13.20;99.70;;;;;;5115563;28;20028;-67
2022/11/09 00:10:37;;;;;;;2.05;0.80;;;13.20;99.90;;;;;;5115279;28;20038;-67
2022/11/09 00:13:03;;;;;;;1.50;1.00;;;13.20;99.90;;;;;;5115245;28;20478;-67
2022/11/09 00:15:29;;;;;;;1.13;0.80;;;13.20;99.90;;;;;;5115178;28;20035;-68
2022/11/09 00:17:54;;;;;;;2.70;1.10;;;13.20;99.90;;;;;;5115371;28;20051;-67
2022/11/09 00:20:20;;;;;;;2.33;0.95;;;13.20;99.90;;;;;;5113830;28;20031;-67
2022/11/09 00:22:47;;;;;;;3.53;1.40;;;13.20;99.90;;;;;;5113808;28;20031;-67
2022/11/09 00:25:13;;;;;;;3.28;1.30;;;13.20;99.90;;;;;;5114866;27;20122;-67
2022/11/09 00:27:39;;;;;;;1.60;1.00;;;13.20;99.80;;;;;;5114922;28;20063;-67
2022/11/09 00:30:05;;;;;;;2.05;1.10;;;13.20;99.80;;;;;;5114450;28;20047;-67
2022/11/09 00:32:31;;;;;;;1.52;0.80;;;13.20;99.60;;;;;;5114760;28;20047;-67
2022/11/09 00:34:56;;;;;;;2.05;1.20;;;13.20;99.60;;;;;;5114880;28;20043;-67
2022/11/09 00:37:22;;;;;;;2.15;0.90;;;13.20;99.50;;;;;;5114945;28;20036;-68
2022/11/09 00:39:48;;;;;;;2.35;0.80;;;13.20;99.70;;;;;;5113466;28;20402;-68
2022/11/09 00:42:13;;;;;;;2.60;1.27;;;13.20;99.10;;;;;;5114879;28;20126;-67
2022/11/09 00:44:39;;;;;;;2.70;1.10;;;13.20;99.40;;;;;;5114479;28;20048;-67
2022/11/09 00:47:04;;;;;;;0.98;0.77;;;13.10;99.80;;;;;;5114868;28;20040;-67
2022/11/09 00:49:30;;;;;;;3.40;0.95;;;13.00;99.90;;;;;;5114822;28;20046;-67
2022/11/09 00:51:56;;;;;;;1.13;0.93;;;13.00;99.90;;;;;;5114743;28;20040;-67
2022/11/09 00:54:21;;;;;;;2.22;1.08;;;13.00;99.90;;;;;;5114323;28;20126;-67
2022/11/09 00:56:47;;;;;;;2.20;1.00;;;12.90;99.90;;;;;;5114291;28;20035;-66
2022/11/09 00:59:13;;;;;;;1.23;0.80;;;12.90;99.90;;;;;;5113092;28;20093;-67
2022/11/09 01:01:38;;;;;;;1.73;0.90;;;13.00;99.90;;;;;;5114591;28;20035;-67
2022/11/09 01:04:04;;;;;;;5.03;0.80;;;13.00;99.90;;;;;;5114497;28;20046;-67
2022/11/09 01:06:30;;;;;;;1.15;0.80;;;12.90;99.90;;;;;;5114433;28;20092;-66
2022/11/09 01:08:57;;;;;;;2.63;0.90;;;12.90;99.90;;;;;;5114173;28;20118;-67
2022/11/09 01:11:23;;;;;;;2.17;1.00;;;12.90;99.90;;;;;;5114098;28;20078;-67
2022/11/09 01:13:48;;;;;;;3.55;1.33;;;12.90;99.90;;;;;;5114265;28;20084;-67
2022/11/09 01:16:18;;;;;;;3.58;1.15;;;13.00;99.90;;;;;;5114350;28;20040;-67
2022/11/09 01:18:44;;;;;;;1.65;0.77;;;13.00;99.90;;;;;;5114400;28;20027;-67
2022/11/09 01:21:11;;;;;;;0.98;0.80;;;13.10;99.90;;;;;;5113895;28;20040;-68
2022/11/09 01:23:37;;;;;;;5.50;1.15;;;13.10;99.90;;;;;;5114272;28;20080;-67
2022/11/09 01:26:07;;;;;;;1.30;1.10;;;13.10;99.90;;;;;;5114147;27;20507;-67
2022/11/09 01:28:33;;;;;;;2.53;0.98;;;13.00;99.90;;;;;;5113860;28;20042;-67
2022/11/09 01:31:05;;;;;;;2.47;1.52;;;13.00;99.90;;;;;;5114160;28;20165;-67
2022/11/09 01:33:31;;;;;;;2.13;0.93;;;12.90;99.90;;;;;;5114116;28;20043;-67
2022/11/09 01:36:14;;;;;;;1.80;0.88;;;12.90;99.90;;;;;;5114083;28;20051;-67
2022/11/09 01:38:40;;;;;;;1.65;0.90;;;12.90;99.90;;;;;;5114090;28;20097;-67
2022/11/09 01:41:08;;;;;;;3.67;1.15;;;12.90;99.90;;;;;;5113852;28;20036;-67
2022/11/09 01:43:34;;;;;;;1.15;0.70;;;12.90;99.90;;;;;;5113925;28;20051;-67
2022/11/09 01:46:05;;;;;;;1.02;0.70;;;12.80;99.90;;;;;;5112232;28;20048;-67
2022/11/09 01:48:39;;;;;;;3.45;1.00;;;12.80;99.90;;;;;;5113990;28;20107;-67
2022/11/09 01:51:27;;;;;;;3.25;0.80;;;12.80;99.90;;;;;;5113929;28;20082;-67
2022/11/09 01:54:00;;;;;;;3.75;1.40;;;12.80;99.90;;;;;;5102722;28;20417;-67
2022/11/09 01:56:28;;;;;;;2.67;0.82;;;12.80;99.90;;;;;;5112346;28;20050;-67
2022/11/09 01:59:04;;;;;;;0.90;0.60;;;12.80;99.90;;;;;;5112272;28;20054;-67
2022/11/09 02:01:31;;;;;;;3.33;1.23;;;12.90;99.90;;;;;;5113491;28;20126;-67
2022/11/09 02:04:04;;;;;;;4.80;1.15;;;12.80;99.90;;;;;;5113552;28;20044;-67
2022/11/09 02:06:31;;;;;;;2.50;0.90;;;12.70;99.90;;;;;;5113449;28;20035;-67
2022/11/09 02:09:08;;;;;;;1.95;1.10;;;12.70;99.90;;;;;;5113753;28;20399;-67
2022/11/09 02:11:36;;;;;;;2.55;1.20;;;12.70;99.90;;;;;;5113461;28;20035;-67
2022/11/09 02:14:03;;;;;;;2.22;1.00;;;12.60;99.90;;;;;;5113639;28;20467;-67
2022/11/09 02:16:29;;;;;;;1.15;1.02;;;12.60;99.90;;;;;;5113670;28;20093;-67
2022/11/09 02:18:57;;;;;;;1.52;0.80;;;12.60;99.90;;;;;;5113714;28;20378;-67
2022/11/09 02:21:28;;;;;;;3.72;1.48;;;12.50;99.90;;;;;;5112010;28;20116;-67
2022/11/09 02:23:55;;;;;;;1.80;1.00;;;12.50;99.90;;;;;;5113542;28;20475;-67
2022/11/09 02:26:54;;;;;;;3.35;1.23;;;12.50;99.90;;;;;;5113550;28;20027;-67
2022/11/09 02:29:27;;;;;;;1.55;1.10;;;12.40;99.90;;;;;;5095173;28;20502;-67
2022/11/09 02:31:57;;;;;;;1.60;0.60;;;12.40;99.90;;;;;;5112335;28;20043;-67
2022/11/09 02:34:24;;;;;;;2.58;1.02;;;12.40;99.90;;;;;;5113518;28;20063;-67
2022/11/09 02:36:50;;;;;;;1.42;0.73;;;12.40;99.90;;;;;;5112000;28;20044;-68
2022/11/09 02:39:21;;;;;;;3.47;1.00;;;12.40;99.90;;;;;;5112199;28;20051;-67
2022/11/09 02:41:50;;;;;;;1.33;0.77;;;12.40;99.90;;;;;;5112181;28;20047;-67
2022/11/09 02:44:17;;;;;;;1.90;0.95;;;12.40;99.90;;;;;;5113122;28;20043;-67
2022/11/09 02:46:43;;;;;;;1.10;0.80;;;12.40;99.90;;;;;;5113166;28;20039;-67
2022/11/09 02:49:09;;;;;;;3.55;1.00;;;12.40;99.90;;;;;;5113370;28;20028;-67
2022/11/09 02:51:35;;;;;;;0.95;0.80;;;12.40;99.90;;;;;;5113958;28;20032;-68
2022/11/09 02:54:00;;;;;;;4.50;1.13;;;12.40;99.90;;;;;;5116781;28;20057;-67
2022/11/09 02:56:26;;;;;;;1.67;0.73;;;12.40;99.90;;;;;;5115505;28;20044;-67
2022/11/09 02:58:52;;;;;;;4.32;1.00;;;12.30;99.90;;;;;;5116940;28;20390;-67
2022/11/09 03:01:17;;;;;;;1.23;0.80;;;12.30;99.90;;;;;;5116960;28;20078;-67
2022/11/09 03:03:43;;;;;;;1.42;0.70;;;12.30;99.90;;;;;;5116858;28;20039;-67
2022/11/09 03:06:09;;;;;;;3.92;0.90;;;12.30;99.90;;;;;;5116343;28;20039;-67
2022/11/09 03:08:35;;;;;;;3.03;1.27;;;12.30;99.90;;;;;;5116597;28;20051;-67
2022/11/09 03:11:01;;;;;;;1.33;0.80;;;12.30;99.90;;;;;;5115353;28;20040;-67
2022/11/09 03:13:27;;;;;;;3.40;1.05;;;12.40;99.90;;;;;;5115472;28;20047;-69
2022/11/09 03:15:53;;;;;;;0.68;0.57;;;12.40;99.90;;;;;;5116697;28;20035;-69
2022/11/09 03:18:18;;;;;;;1.70;0.90;;;12.30;99.90;;;;;;5132212;27;20066;-67
2022/11/09 03:20:44;;;;;;;2.67;1.08;;;12.40;99.90;;;;;;5114989;28;20422;-67
2022/11/09 03:23:10;;;;;;;2.58;1.20;;;12.60;99.90;;;;;;5116214;28;20043;-67
2022/11/09 03:25:36;;;;;;;3.80;1.40;;;12.40;99.90;;;;;;5097933;28;20036;-68
2022/11/09 03:28:04;;;;;;;2.63;1.10;;;12.30;99.90;;;;;;5116495;28;20039;-67
2022/11/09 03:30:31;;;;;;;1.92;0.95;;;12.30;99.90;;;;;;5116323;28;20035;-67
2022/11/09 03:33:02;;;;;;;4.68;1.00;;;12.30;99.90;;;;;;5115054;28;20044;-67
2022/11/09 03:35:28;;;;;;;2.88;1.00;;;12.20;99.90;;;;;;5114722;28;20089;-67
2022/11/09 03:37:53;;;;;;;2.50;0.85;;;12.20;99.90;;;;;;5116187;28;20079;-67
2022/11/09 03:40:19;;;;;;;3.25;0.80;;;12.20;99.90;;;;;;5116152;28;20047;-67
2022/11/09 03:42:47;;;;;;;1.05;0.88;;;12.30;99.90;;;;;;5115825;28;20032;-67
2022/11/09 03:45:14;;;;;;;1.73;0.82;;;12.20;99.90;;;;;;5115699;28;20050;-67
2022/11/09 03:47:44;;;;;;;3.42;0.98;;;12.20;99.90;;;;;;5116143;28;20437;-67
2022/11/09 03:50:11;;;;;;;5.38;1.27;;;12.20;99.90;;;;;;5115991;28;20042;-67
2022/11/09 03:52:36;;;;;;;4.90;0.88;;;12.20;99.90;;;;;;5114729;28;20039;-67
2022/11/09 03:55:04;;;;;;;3.35;0.75;;;12.10;99.90;;;;;;5115684;28;20199;-68
2022/11/09 03:57:29;;;;;;;2.65;0.75;;;12.10;99.90;;;;;;5114312;28;20050;-68
2022/11/09 03:59:55;;;;;;;3.78;0.93;;;12.10;99.90;;;;;;5114232;28;20479;-67
2022/11/09 04:02:21;;;;;;;3.70;1.13;;;12.10;99.90;;;;;;5115505;28;20555;-67
2022/11/09 04:04:47;;;;;;;5.95;0.80;;;12.10;99.90;;;;;;5114078;28;20047;-69
2022/11/09 04:07:13;;;;;;;2.10;0.90;;;12.10;99.90;;;;;;5115639;28;20474;-67
2022/11/09 04:09:39;;;;;;;2.17;1.00;;;12.10;99.90;;;;;;5114129;28;20474;-67
2022/11/09 04:12:05;;;;;;;1.50;0.98;;;12.10;99.90;;;;;;5115492;28;20093;-67
2022/11/09 04:14:30;;;;;;;4.00;0.70;;;12.10;99.90;;;;;;5115255;28;20475;-67
2022/11/09 04:16:56;;;;;;;1.40;0.95;;;12.10;99.90;;;;;;5115486;28;20039;-67
2022/11/09 04:19:22;;;;;;;2.70;1.00;;;12.10;99.90;;;;;;5115386;28;20115;-67
2022/11/09 04:21:48;;;;;;;3.80;0.95;;;12.10;99.90;;;;;;5115404;28;20040;-67
2022/11/09 04:24:14;;;;;;;2.22;0.80;;;12.10;99.90;;;;;;5115239;27;20075;-67
2022/11/09 04:26:40;;;;;;;5.75;1.27;;;12.00;99.90;;;;;;5113751;28;20043;-67
2022/11/09 04:29:05;;;;;;;4.10;1.23;;;12.10;99.90;;;;;;5113733;28;20039;-67
2022/11/09 04:31:31;;;;;;;2.30;1.10;;;12.10;99.90;;;;;;5115138;28;20067;-67
2022/11/09 04:33:57;;;;;;;2.15;0.90;;;12.00;99.90;;;;;;5113833;28;20058;-67
2022/11/09 04:36:23;;;;;;;4.75;1.35;;;12.00;99.90;;;;;;5115030;28;20119;-67
2022/11/09 04:38:48;;;;;;;2.65;1.05;;;12.10;99.90;;;;;;5113527;28;20040;-68
2022/11/09 04:41:14;;;;;;;1.50;0.93;;;12.10;99.90;;;;;;5113430;28;20146;-67
2022/11/09 04:43:40;;;;;;;5.05;1.10;;;12.10;99.90;;;;;;5114959;28;20114;-67
2022/11/09 04:46:06;;;;;;;2.42;0.90;;;12.10;99.90;;;;;;5113206;28;20055;-67
2022/11/09 04:48:32;;;;;;;2.40;0.88;;;12.10;99.90;;;;;;5114827;28;20399;-67
2022/11/09 04:51:04;;;;;;;4.90;0.98;;;12.10;99.90;;;;;;5113614;28;20462;-66
2022/11/09 04:53:30;;;;;;;2.05;0.80;;;12.10;99.90;;;;;;5114795;28;20035;-67
2022/11/09 04:55:56;;;;;;;2.63;1.00;;;12.10;99.90;;;;;;5114721;28;20044;-67
2022/11/09 04:58:22;;;;;;;2.90;1.08;;;12.10;99.90;;;;;;5114276;28;20433;-67
2022/11/09 05:00:48;;;;;;;2.10;1.05;;;12.10;99.90;;;;;;5114558;28;20118;-67
2022/11/09 05:03:13;;;;;;;2.70;0.93;;;12.10;99.90;;;;;;5114482;28;20035;-67
2022/11/09 05:05:40;;;;;;;3.63;0.90;;;12.20;99.90;;;;;;5114447;28;20036;-67
2022/11/09 05:08:07;;;;;;;2.45;1.02;;;12.20;99.90;;;;;;5096034;28;20039;-67
2022/11/09 05:10:33;;;;;;;5.55;1.00;;;12.20;99.90;;;;;;5114411;28;20041;-68
2022/11/09 05:13:01;;;;;;;3.17;0.88;;;12.30;99.90;;;;;;5114463;28;20467;-67
2022/11/09 05:15:27;;;;;;;4.20;0.98;;;12.30;99.90;;;;;;5112411;28;20052;-68
2022/11/09 05:17:53;;;;;;;2.30;0.73;;;12.30;99.90;;;;;;5114354;27;20070;-67
2022/11/09 05:20:19;;;;;;;4.82;1.13;;;12.30;99.90;;;;;;5113037;28;20043;-67
2022/11/09 05:25:29;;;;;;;1.70;0.90;;;12.50;99.90;;;;;;5114088;28;20052;-67
2022/11/09 05:27:55;;;;;;;1.08;0.88;;;12.50;99.90;;;;;;5114250;28;20482;-67
2022/11/09 05:30:21;;;;;;;7.55;1.20;;;12.50;99.90;;;;;;5114158;28;20039;-67
2022/11/09 05:32:46;;;;;;;2.53;1.20;;;12.50;99.90;;;;;;5112837;28;20047;-71
2022/11/09 05:35:12;;;;;;;3.38;1.05;;;12.60;99.90;;;;;;5113815;28;20036;-68
2022/11/09 05:37:39;;;;;;;1.60;1.10;;;12.60;99.90;;;;;;5112713;28;20436;-67
2022/11/09 05:40:07;;;;;;;2.67;0.90;;;12.60;99.90;;;;;;5112736;28;20532;-66
2022/11/09 05:42:33;;;;;;;3.13;1.15;;;12.60;99.90;;;;;;5113995;28;20052;-67
2022/11/09 05:44:58;;;;;;;2.65;1.00;;;12.50;99.90;;;;;;5113677;28;20051;-67
2022/11/09 05:47:24;;;;;;;3.80;0.80;;;12.50;99.90;;;;;;5113960;28;20039;-67
2022/11/09 05:49:49;;;;;;;2.17;0.77;;;12.40;99.90;;;;;;5113947;28;20043;-66
2022/11/09 05:52:15;;;;;;;4.28;1.10;;;12.40;99.90;;;;;;5112396;28;20069;-66
2022/11/09 05:54:41;;;;;;;4.88;1.83;;;12.30;99.90;;;;;;5113939;28;20078;-66
2022/11/09 05:57:06;;;;;;;8.05;1.02;;;12.20;99.90;;;;;;5113924;28;20036;-68
2022/11/09 05:59:32;;;;;;;3.42;1.23;;;12.20;99.90;;;;;;5113822;28;20122;-66
2022/11/09 06:01:58;;;;;;;3.50;1.17;;;12.20;99.90;;;;;;5113790;28;20035;-66
2022/11/09 06:04:23;;;;;;;2.10;0.98;;;12.10;99.90;;;;;;5113492;28;20044;-66
2022/11/09 06:06:49;;;;;;;2.55;0.80;;;12.10;99.90;;;;;;5113752;28;20054;-66
2022/11/09 06:09:15;;;;;;;1.73;1.13;;;12.00;99.90;;;;;;5112495;28;20399;-66
2022/11/09 06:11:40;;;;;;;2.88;0.65;;;12.00;99.90;;;;;;5112196;28;20503;-66
2022/11/09 06:14:06;;;;;;;7.07;1.52;;;12.00;99.90;;;;;;5113702;28;20456;-67
2022/11/09 06:16:32;;;;;;;3.30;1.00;;;12.00;99.90;;;;;;5112397;28;20050;-67
2022/11/09 06:18:59;;;;;;;2.05;0.93;;;11.90;99.90;;;;;;5113665;28;20397;-67
2022/11/09 06:21:25;;;;;;;2.47;1.23;;;11.90;99.90;;;;;;5113599;28;20402;-66
2022/11/09 06:23:50;;;;;;;1.27;0.70;;;11.90;99.90;;;;;;5113580;28;20036;-66
2022/11/09 06:26:16;;;;;;;1.45;1.08;;;11.90;99.90;;;;;;5113635;28;20059;-66
2022/11/09 06:28:42;;;;;;;4.70;1.10;;;11.80;99.90;;;;;;5116019;28;20067;-68
2022/11/09 06:31:11;;;;;;;3.65;1.10;;;11.90;99.90;;;;;;5117257;28;20122;-65
2022/11/09 06:33:37;;;;;;;3.55;0.93;;;11.90;99.90;;;;;;5116209;28;20054;-64
2022/11/09 06:36:03;;;;;;;2.25;0.90;;;11.90;99.90;;;;;;5115925;28;20043;-65
2022/11/09 06:38:29;;;;;;;1.25;1.02;;;11.80;99.90;;;;;;5117280;28;20086;-65
2022/11/09 06:40:57;;;;;;;1.98;0.82;;;11.80;99.90;;;;;;5117233;28;20039;-65
2022/11/09 06:43:23;;;;;;;1.52;0.65;;;11.80;99.90;;;;;;5117278;28;20043;-65
2022/11/09 06:45:50;;;;;;;1.52;0.75;;;11.70;99.90;;;;;;5116805;28;20401;-65
2022/11/09 06:48:16;;;;;;;2.33;0.80;;;11.80;99.90;;;;;;5117236;28;20404;-63
2022/11/09 06:50:41;;;;;;;3.08;0.68;;;11.80;99.90;;;;;;5117114;28;20040;-65
2022/11/09 06:53:10;;;;;;;2.28;1.00;;;11.80;99.90;;;;;;5117152;28;20379;-65
2022/11/09 06:55:36;;;;;;;1.83;0.90;;;11.70;99.90;;;;;;5117143;28;20046;-65
2022/11/09 06:58:13;;;;;;;1.00;0.80;;;11.70;99.90;;;;;;5116744;28;20035;-63
2022/11/09 07:00:39;;;;;;;3.30;1.30;;;11.60;99.90;;;;;;5116643;28;20079;-64
2022/11/09 07:03:05;;;;;;;2.08;1.00;;;11.60;99.90;;;;;;5116868;28;20036;-65
2022/11/09 07:05:30;;;;;;;3.58;1.15;;;11.60;99.90;;;;;;5116447;28;20039;-64
2022/11/09 07:07:57;;;;;;;1.30;0.90;;;11.60;99.90;;;;;;5116714;28;20047;-65
2022/11/09 07:10:23;;;;;;;4.05;0.77;;;11.60;99.90;;;;;;5116771;28;20073;-66
2022/11/09 07:12:49;;;;;;;5.70;0.93;;;11.70;99.90;;;;;;5116807;28;20043;-65
2022/11/09 07:15:15;;;;;;;3.28;0.90;;;11.60;99.90;;;;;;5116696;28;20048;-65
2022/11/09 07:17:40;;;;;;;4.47;0.85;;;11.60;99.90;;;;;;5116308;28;20162;-65
2022/11/09 07:20:07;;;;;;;3.58;0.77;;;11.60;99.90;;;;;;5116476;27;20031;-66
2022/11/09 07:22:38;;;;;;;2.45;1.13;;;11.60;99.90;;;;;;5116242;27;20091;-65
2022/11/09 07:25:05;;;;;;;1.67;0.93;;;11.60;99.90;;;;;;5115343;28;20501;-66
2022/11/09 07:27:31;;;;;;;4.25;0.60;;;11.60;99.90;;;;;;5115093;28;20498;-67
2022/11/09 07:29:57;;;;;;;1.98;0.63;;;11.70;99.90;;;;;;5116252;27;20040;-66
2022/11/09 07:32:22;;;;;;;8.55;1.67;;;11.70;99.90;;;;;;5116142;28;20123;-66
2022/11/09 07:34:48;;;;;;;3.40;0.77;;;11.60;99.90;;;;;;5116218;28;20071;-66
2022/11/09 07:37:13;;;;;;;1.77;0.80;;;11.60;99.90;;;;;;5115359;28;20043;-66
2022/11/09 07:39:39;;;;;;;2.53;1.00;;;11.80;99.90;;;;;;5116101;28;20043;-65
2022/11/09 07:42:05;;;;;;;3.03;0.70;;;11.60;99.90;;;;;;5115715;28;20460;-65
2022/11/09 07:44:31;;;;;;;2.05;1.20;;;11.60;99.90;;;;;;5115437;28;20131;-66
2022/11/09 07:46:56;;;;;;;2.72;1.10;;;11.70;99.90;;;;;;5114588;28;20101;-66
2022/11/09 07:49:22;;;;;;;4.47;1.02;;;11.70;99.90;;;;;;5115809;28;20036;-66
2022/11/09 07:51:48;;;;;;;2.95;0.73;;;11.70;99.90;;;;;;5115455;28;20513;-66
2022/11/09 07:54:14;;;;;;;1.60;0.43;;;11.70;99.90;;;;;;5115748;28;20032;-66
2022/11/09 07:56:40;;;;;;;2.40;1.00;;;11.80;99.90;;;;;;5115673;28;20040;-65
2022/11/09 07:59:05;;;;;;;9.02;1.40;;;11.80;99.90;;;;;;5115655;28;20039;-66
2022/11/09 08:01:32;;;;;;;5.22;1.38;;;11.90;99.90;;;;;;5115322;28;20123;-65
2022/11/09 08:03:59;;;;;;;9.77;1.38;;;11.90;99.90;;;;;;5115229;28;20036;-64
2022/11/09 08:06:26;;;;;;;3.53;1.05;;;11.90;99.90;;;;;;5114284;28;20108;-65
2022/11/09 08:08:54;;;;;;;1.10;0.73;;;11.90;99.90;;;;;;5115531;28;20046;-65
2022/11/09 08:11:20;;;;;;;2.05;1.10;;;12.00;99.90;;;;;;5115196;28;20051;-65
2022/11/09 08:13:46;;;;;;;3.38;1.30;;;11.90;99.90;;;;;;5115449;28;20043;-66
2022/11/09 08:16:12;;;;;;;3.35;0.90;;;11.90;99.90;;;;;;5115019;28;20036;-66
2022/11/09 08:18:37;;;;;;;6.05;0.95;;;11.90;99.90;;;;;;5113693;28;20040;-65
2022/11/09 08:21:04;;;;;;;3.08;0.80;;;12.00;99.90;;;;;;5115230;27;20126;-64
2022/11/09 08:23:30;;;;;;;2.92;1.10;;;12.00;99.90;;;;;;5114980;28;20082;-65
2022/11/09 08:25:55;;;;;;;2.42;1.23;;;12.10;99.90;;;;;;5115053;28;20544;-67
2022/11/09 08:28:21;;;;;;;5.28;0.85;;;12.10;99.90;;;;;;5114825;27;20036;-64
2022/11/09 08:30:56;;;;;;;2.92;0.85;;;12.20;99.90;;;;;;5115189;28;20121;-64
2022/11/09 08:33:21;;;;;;;2.58;2.10;;;12.30;99.90;;;;;;5113642;28;20108;-64
2022/11/09 08:35:47;;;;;;;4.30;1.40;;;12.20;99.90;;;;;;5113532;28;20043;-65
2022/11/09 08:38:12;;;;;;;3.83;1.20;;;12.30;99.90;;;;;;5115110;28;20042;-64
2022/11/09 08:40:38;;;;;;;4.28;1.38;;;12.20;99.90;;;;;;5115093;28;20118;-64
2022/11/09 08:43:10;;;;;;;9.13;1.42;;;12.30;99.90;;;;;;5115049;28;20528;-65
2022/11/09 08:45:37;;;;;;;4.70;0.73;;;12.30;99.90;;;;;;5113303;28;20101;-65
2022/11/09 08:48:04;;;;;;;2.38;1.05;;;12.30;99.90;;;;;;5114868;28;20104;-64
2022/11/09 08:50:32;;;;;;;4.68;0.73;;;12.40;99.90;;;;;;5114061;28;20040;-65
2022/11/09 08:52:59;;;;;;;4.47;1.30;;;12.40;99.90;;;;;;5114817;28;20038;-65
2022/11/09 08:55:24;;;;;;;2.65;1.00;;;12.40;99.90;;;;;;5113638;28;20390;-65
2022/11/09 08:57:58;;;;;;;4.88;1.20;;;12.50;99.90;;;;;;5096288;28;20039;-65
2022/11/09 09:00:24;;;;;;;6.28;0.80;;;12.50;99.90;;;;;;5096365;28;20055;-65
2022/11/09 09:02:50;;;;;;;3.97;1.13;;;12.50;99.90;;;;;;5112994;28;20031;-65
2022/11/09 09:05:16;;;;;;;6.85;1.48;;;12.60;99.90;;;;;;5114411;28;20035;-65
2022/11/09 09:07:42;;;;;;;3.92;1.00;;;12.60;99.90;;;;;;5114508;28;20043;-66
2022/11/09 09:10:08;;;;;;;2.47;0.80;;;12.60;99.90;;;;;;5114487;28;20364;-65
2022/11/09 09:12:35;;;;;;;5.47;1.10;;;12.70;99.90;;;;;;5114426;28;20039;-65
2022/11/09 09:15:00;;;;;;;7.60;1.30;;;12.70;99.90;;;;;;5114386;28;20429;-64
2022/11/09 09:17:26;;;;;;;3.55;1.05;;;12.80;99.90;;;;;;5112798;28;20039;-65
2022/11/09 09:19:52;;;;;;;4.32;1.15;;;12.80;99.90;;;;;;5114381;28;20047;-65
2022/11/09 09:22:18;;;;;;;6.18;1.27;;;12.80;99.90;;;;;;5113034;28;20043;-64
2022/11/09 09:24:44;;;;;;;2.60;1.23;;;12.90;99.50;;;;;;5112577;28;20039;-65
2022/11/09 09:27:10;;;;;;;3.15;0.95;;;13.00;99.90;;;;;;5114116;28;20043;-65
2022/11/09 09:29:35;;;;;;;4.35;1.10;;;12.90;99.60;;;;;;5112561;28;20417;-66
2022/11/09 09:32:01;;;;;;;6.68;1.75;;;12.90;99.80;;;;;;5114068;28;20035;-66
2022/11/09 09:34:27;;;;;;;2.47;0.90;;;13.00;99.90;;;;;;5113698;28;20043;-66
2022/11/09 09:36:52;;;;;;;4.35;1.63;;;13.00;97.50;;;;;;5114048;28;20079;-66
2022/11/09 09:39:18;;;;;;;4.00;1.17;;;13.10;97.30;;;;;;5113894;28;20039;-66
2022/11/09 09:42:00;;;;;;;2.28;1.20;;;13.10;96.70;;;;;;5113617;28;20074;-66
2022/11/09 09:45:14;;;;;;;2.50;1.00;;;13.10;96.20;;;;;;5113609;28;20056;-67
2022/11/09 09:47:48;;;;;;;3.97;1.25;;;13.10;96.80;;;;;;5100385;28;20489;-66
2022/11/09 09:50:20;;;;;;;7.22;1.95;;;13.10;97.50;;;;;;5113784;28;20324;-67
2022/11/09 09:53:10;;;;;;;5.13;1.10;;;13.20;97.10;;;;;;5112176;28;20040;-67
2022/11/09 09:55:42;;;;;;;2.92;1.40;;;13.30;96.20;;;;;;5113442;28;20085;-66
2022/11/09 09:58:25;;;;;;;2.10;1.30;;;13.30;94.70;;;;;;5113840;28;20390;-66
2022/11/09 10:00:55;;;;;;;4.50;1.35;;;13.40;93.80;;;;;;5114819;28;20040;-66
2022/11/09 10:03:21;;;;;;;3.15;1.35;;;13.40;92.00;;;;;;5117653;28;20043;-67
2022/11/09 10:06:21;;;;;;;10.00;2.00;;;13.40;94.60;;;;;;5116242;28;20054;-66
2022/11/09 10:09:15;;;;;;;7.25;1.85;;;13.40;91.10;;;;;;5117645;28;20039;-66
2022/11/09 10:11:43;;;;;;;6.32;1.60;;;13.40;90.80;;;;;;5117806;28;20486;-66
2022/11/09 10:14:21;;;;;;;3.53;1.15;;;13.40;90.20;;;;;;5117737;28;20117;-66
2022/11/09 10:17:15;;;;;;;2.58;1.40;;;13.40;90.20;;;;;;5117304;28;20078;-67
2022/11/09 10:19:44;;;;;;;3.30;1.38;;;13.50;87.20;;;;;;5110259;28;20171;-67
2022/11/09 10:22:36;;;;;;;3.92;1.67;;;13.50;92.40;;;;;;5117545;28;20059;-66
2022/11/09 10:25:13;;;;;;;3.28;1.17;;;13.70;82.80;;;;;;5117452;28;20043;-67
2022/11/09 10:27:48;;;;;;;2.97;1.38;;;13.70;88.60;;;;;;5117479;28;20092;-67
2022/11/09 10:30:16;;;;;;;4.32;1.08;;;13.80;82.30;;;;;;5117556;28;20088;-67
2022/11/09 10:33:00;;;;;;;2.28;0.95;;;13.80;74.90;;;;;;5115746;28;20039;-66
2022/11/09 10:35:35;;;;;;;2.45;1.30;;;13.80;73.20;;;;;;5115857;28;20083;-67
2022/11/09 10:38:01;;;;;;;3.80;1.08;;;13.80;78.90;;;;;;5117391;28;20465;-67
2022/11/09 10:40:32;;;;;;;7.05;1.75;;;13.80;71.70;;;;;;5117255;27;20075;-67
2022/11/09 10:43:04;;;;;;;2.15;0.95;;;13.80;66.10;;;;;;5116856;28;20096;-67
2022/11/09 10:45:31;;;;;;;3.88;1.40;;;13.80;73.00;;;;;;5116616;28;20421;-67
2022/11/09 10:47:58;;;;;;;3.35;1.15;;;13.80;70.00;;;;;;5117153;28;20040;-67
2022/11/09 10:50:23;;;;;;;4.30;1.15;;;13.80;68.00;;;;;;5117074;28;20040;-67
2022/11/09 10:52:49;;;;;;;11.20;1.83;;;13.80;61.10;;;;;;5116896;28;20491;-67
2022/11/09 10:55:20;;;;;;;4.32;1.17;;;13.80;65.20;;;;;;5115664;28;20042;-67
2022/11/09 10:58:24;;;;;;;2.42;1.20;;;13.90;65.10;;;;;;5116799;28;20558;-67
2022/11/09 11:01:10;;;;;;;8.75;1.73;;;13.80;61.20;;;;;;5093875;28;20486;-67
2022/11/09 11:03:40;;;;;;;3.78;1.10;;;13.80;51.20;;;;;;5116697;28;20094;-66
2022/11/09 11:06:14;;;;;;;9.93;1.50;;;13.80;44.20;;;;;;5115198;28;20039;-67
2022/11/09 11:08:43;;;;;;;4.93;1.50;;;13.80;44.20;;;;;;5115114;28;20077;-66
2022/11/09 11:11:26;;;;;;;2.72;0.95;;;13.90;34.90;;;;;;5116437;28;20040;-67
2022/11/09 11:14:20;;;;;;;2.72;1.42;;;14.00;40.40;;;;;;5115493;28;20043;-67
2022/11/09 11:16:47;;;;;;;2.38;0.95;;;14.20;28.90;;;;;;5132144;27;20078;-67
2022/11/09 11:19:37;;;;;;;3.33;1.38;;;14.20;33.20;;;;;;5116486;28;20046;-67
2022/11/09 11:22:17;;;;;;;1.30;0.70;;;14.40;27.90;;;;;;5116444;28;20447;-66
2022/11/09 11:24:56;;;;;;;4.55;1.30;;;14.40;23.60;;;;;;5116409;28;20052;-67
2022/11/09 11:27:49;;;;;;;4.25;1.30;;;14.40;19.40;;;;;;5115068;28;20043;-67
2022/11/09 11:30:21;;;;;;;2.45;1.13;;;14.30;20.10;;;;;;5114811;28;20036;-68
2022/11/09 11:32:47;;;;;;;6.75;1.20;;;14.30;22.20;;;;;;5115121;28;20405;-68
2022/11/09 11:35:15;;;;;;;2.55;1.00;;;14.40;25.10;;;;;;5115044;28;20134;-66
2022/11/09 11:38:04;;;;;;;5.10;1.75;;;14.50;23.30;;;;;;5116192;28;20084;-67
2022/11/09 11:40:37;;;;;;;3.10;1.10;;;14.80;1.00;;;;;;5116144;28;20063;-66
2022/11/09 11:43:13;;;;;;;1.58;0.93;;;15.10;1.00;;;;;;5114637;28;20062;-66
2022/11/09 11:45:45;;;;;;;2.78;0.85;;;15.30;1.00;;;;;;5115605;28;20109;-67
2022/11/09 11:48:33;;;;;;;4.70;1.20;;;15.60;1.00;;;;;;5115943;28;20050;-67
2022/11/09 11:51:24;;;;;;;5.22;0.93;;;15.60;1.00;;;;;;5115865;28;20042;-65
2022/11/09 11:54:13;;;;;;;0.73;0.73;;;15.20;1.00;;;;;;5115630;28;20042;-65
2022/11/09 11:56:46;;;;;;;1.08;0.50;;;14.90;1.00;;;;;;5115877;28;20418;-64
2022/11/09 11:59:41;;;;;;;6.63;1.00;;;14.70;1.00;;;;;;5115487;28;20051;-66
2022/11/09 12:02:25;;;;;;;8.38;1.85;;;14.50;1.00;;;;;;5114509;28;20040;-66
2022/11/09 12:05:45;;;;;;;5.80;1.08;;;14.40;1.00;;;;;;5114149;28;20043;-67
2022/11/09 12:08:19;;;;;;;4.72;0.98;;;14.30;1.00;;;;;;5052411;28;20130;-67
2022/11/09 12:11:14;;;;;;;6.65;1.05;;;14.30;1.00;;;;;;5102208;28;20391;-64
2022/11/09 12:14:08;;;;;;;4.32;0.98;;;14.30;1.00;;;;;;5115514;28;20046;-63
2022/11/09 12:16:50;;;;;;;3.60;1.23;;;14.30;1.00;;;;;;5115295;28;20044;-66
2022/11/09 12:19:35;;;;;;;4.03;1.17;;;14.30;1.00;;;;;;5115329;28;20626;-66
2022/11/09 12:22:21;;;;;;;2.42;1.25;;;14.40;1.00;;;;;;5114973;28;20032;-65
2022/11/09 12:25:01;;;;;;;5.70;0.95;;;14.40;1.00;;;;;;5114240;27;20067;-67
2022/11/09 12:27:49;;;;;;;2.85;0.90;;;14.40;1.00;;;;;;5114885;28;20040;-66
2022/11/09 12:30:21;;;;;;;5.22;1.05;;;14.20;1.00;;;;;;5114047;28;20066;-68
2022/11/09 12:33:01;;;;;;;1.90;0.80;;;14.20;1.00;;;;;;5113652;28;20075;-67
2022/11/09 12:35:42;;;;;;;5.70;1.25;;;14.20;1.00;;;;;;5113425;28;20048;-66
2022/11/09 12:38:20;;;;;;;;;;;14.10;1.00;;;;;;5115476;28;20039;-69
2022/11/09 12:41:00;;;;;;;5.15;1.17;;;14.10;1.00;;;;;;5114996;28;19971;-66
2022/11/09 12:43:44;;;;;;;2.65;1.10;;;14.10;1.00;;;;;;5114829;28;20075;-66
2022/11/09 12:46:11;;;;;;;1.90;0.65;;;14.00;1.00;;;;;;5114289;28;20124;-67
2022/11/09 12:48:38;;;;;;;6.32;1.52;;;14.10;1.00;;;;;;5114763;28;20043;-67
2022/11/09 12:51:06;;;;;;;4.55;0.80;;;14.10;1.00;;;;;;5114726;28;20039;-67
2022/11/09 12:53:34;;;;;;;1.27;0.70;;;14.00;1.00;;;;;;5114791;28;20108;-66
2022/11/09 12:56:24;;;;;;;3.15;1.00;;;14.00;1.00;;;;;;5114258;28;20040;-67
2022/11/09 12:58:50;;;;;;;5.68;0.98;;;14.00;1.00;;;;;;5114679;28;20035;-66
2022/11/09 13:01:33;;;;;;;2.08;0.93;;;14.00;1.00;;;;;;5114538;28;20131;-67
2022/11/09 13:04:02;;;;;;;2.78;1.10;;;13.90;1.00;;;;;;5114304;28;20088;-67